Time;durP1;ratioP1;P1;durP2;ratioP2;P2;SDS_P1;SDS_P2;PMS_P1;PMS_P2;Temp;Humidity;BMP_temperature;BMP_pressure;BME280_temperature;BME280_humidity;BME280_pressure;Samples;Min_cycle;Max_cycle;Signal;HPM_P1;HPM_P2
2023/02/21 02:16:02;;;;;;;4.90;3.47;;;;;;;10.13;45.40;97876.00;4960535;28;20433;-69
2023/02/21 02:18:44;;;;;;;4.30;3.13;;;;;;;9.99;46.03;97878.03;4940435;28;20591;-69
2023/02/21 02:21:28;;;;;;;12.03;2.80;;;;;;;10.05;45.86;97874.03;4932578;28;20445;-68
2023/02/21 02:24:27;;;;;;;5.30;3.03;;;;;;;10.01;45.81;97875.28;4952262;28;20873;-72
2023/02/21 02:27:19;;;;;;;9.67;3.43;;;;;;;10.02;45.87;97870.88;4949795;28;20511;-70
2023/02/21 02:30:22;;;;;;;6.13;3.27;;;;;;;10.02;45.75;97873.47;4927921;28;20477;-71
2023/02/21 02:33:09;;;;;;;5.33;3.00;;;;;;;9.93;46.06;97869.88;4952324;28;20442;-72
2023/02/21 02:35:42;;;;;;;9.50;2.97;;;;;;;9.90;46.09;97867.50;4950719;28;20442;-70
2023/02/21 02:38:16;;;;;;;4.50;2.90;;;;;;;9.98;46.00;97865.06;4931665;28;20443;-72
2023/02/21 02:41:08;;;;;;;3.90;2.77;;;;;;;10.06;46.09;97872.28;4967588;28;20541;-69
2023/02/21 02:43:50;;;;;;;4.60;3.20;;;;;;;10.07;45.93;97863.44;4934216;29;20454;-71
2023/02/21 02:46:23;;;;;;;5.50;3.20;;;;;;;10.08;45.98;97859.88;4934258;28;20820;-72
2023/02/21 02:48:57;;;;;;;6.43;3.17;;;;;;;10.07;45.64;97863.44;4959408;28;20441;-71
2023/02/21 02:51:22;;;;;;;5.93;2.70;;;;;;;10.09;45.46;97858.88;4950894;28;20565;-71
2023/02/21 02:53:47;;;;;;;7.93;2.93;;;;;;;10.07;45.64;97858.22;4954255;28;20544;-71
2023/02/21 02:56:15;;;;;;;5.17;3.20;;;;;;;10.10;45.75;97852.69;4959451;28;20894;-71
2023/02/21 02:59:01;;;;;;;7.67;2.90;;;;;;;10.14;45.42;97849.66;4951170;28;20222;-70
2023/02/21 03:01:48;;;;;;;6.80;3.00;;;;;;;10.19;45.36;97844.03;4950345;28;20481;-72
2023/02/21 03:04:32;;;;;;;3.70;2.77;;;;;;;10.19;45.68;97851.91;4958584;28;20434;-70
2023/02/21 03:07:14;;;;;;;7.03;2.70;;;;;;;10.18;45.80;97855.47;4951496;28;20438;-71
2023/02/21 03:09:51;;;;;;;4.30;2.77;;;;;;;10.13;45.71;97866.38;4954286;28;20502;-71
2023/02/21 03:12:21;;;;;;;3.20;2.63;;;;;;;10.07;45.69;97856.41;4937417;28;20469;-70
2023/02/21 03:14:51;;;;;;;4.30;2.80;;;;;;;10.04;45.52;97861.91;4962409;28;20432;-70
2023/02/21 03:17:19;;;;;;;3.93;2.40;;;;;;;10.02;46.03;97857.78;4974432;28;20462;-71
2023/02/21 03:19:46;;;;;;;5.80;2.83;;;;;;;9.93;46.00;97857.63;4950999;28;20457;-71
2023/02/21 03:22:18;;;;;;;4.70;2.87;;;;;;;9.87;46.06;97858.13;4940183;28;20445;-72
2023/02/21 03:24:45;;;;;;;4.53;2.70;;;;;;;9.91;46.30;97854.28;4933906;29;20442;-71
2023/02/21 03:27:11;;;;;;;4.47;2.90;;;;;;;9.89;46.20;97853.59;4959786;28;20437;-68
2023/02/21 03:29:38;;;;;;;3.00;2.23;;;;;;;9.96;46.18;97853.91;4933459;29;20470;-71
2023/02/21 03:34:52;;;;;;;3.17;2.47;;;;;;;9.93;45.94;97855.00;4932488;29;20434;-71
2023/02/21 03:37:20;;;;;;;2.77;2.53;;;;;;;9.83;45.92;97856.72;4935365;28;20858;-71
2023/02/21 03:39:45;;;;;;;4.80;2.63;;;;;;;9.77;46.52;97849.41;4953507;28;20229;-69
2023/02/21 03:42:10;;;;;;;3.30;2.30;;;;;;;9.76;46.33;97845.13;4954799;28;20473;-70
2023/02/21 03:44:36;;;;;;;4.90;2.57;;;;;;;9.82;46.21;97847.25;4950726;28;20698;-69
2023/02/21 03:47:01;;;;;;;4.17;2.90;;;;;;;9.91;46.07;97846.44;4952198;28;20225;-71
2023/02/21 03:49:27;;;;;;;3.80;2.70;;;;;;;9.93;46.11;97844.53;4950284;28;20240;-71
2023/02/21 03:51:52;;;;;;;3.40;2.33;;;;;;;9.96;46.08;97838.19;4950941;28;20230;-71
2023/02/21 03:54:18;;;;;;;3.13;2.50;;;;;;;9.94;46.21;97843.56;4958222;28;20233;-69
2023/02/21 03:56:43;;;;;;;2.53;2.30;;;;;;;9.87;46.31;97842.41;4961304;28;20197;-70
2023/02/21 03:59:08;;;;;;;2.47;2.07;;;;;;;9.86;46.41;97850.41;4950205;28;20229;-69
2023/02/21 04:01:34;;;;;;;4.77;2.23;;;;;;;9.84;46.63;97842.66;4950374;28;20197;-69
2023/02/21 04:03:59;;;;;;;2.60;2.23;;;;;;;9.82;46.61;97845.44;4958754;28;20194;-70
2023/02/21 04:06:25;;;;;;;7.13;2.10;;;;;;;9.80;46.54;97851.78;4950103;28;20278;-70
2023/02/21 04:08:50;;;;;;;3.53;2.30;;;;;;;9.80;46.58;97847.34;4950333;28;20213;-69
2023/02/21 04:11:19;;;;;;;5.73;2.40;;;;;;;9.80;46.20;97846.53;4949744;28;20284;-69
2023/02/21 04:13:44;;;;;;;2.37;1.90;;;;;;;9.86;46.31;97850.41;4933987;29;20186;-70
2023/02/21 04:16:09;;;;;;;5.63;2.40;;;;;;;9.96;45.72;97839.00;4949472;28;20520;-70
2023/02/21 04:18:35;;;;;;;4.47;2.07;;;;;;;9.84;46.30;97842.66;4953410;28;20282;-69
2023/02/21 04:21:00;;;;;;;3.27;2.60;;;;;;;9.75;46.58;97839.09;4932933;29;20316;-71
2023/02/21 04:23:26;;;;;;;3.13;2.00;;;;;;;9.77;46.47;97844.16;4949877;28;20190;-70
2023/02/21 04:25:51;;;;;;;6.80;2.17;;;;;;;9.71;46.40;97839.44;4950275;28;20692;-70
2023/02/21 04:28:17;;;;;;;5.90;2.40;;;;;;;9.73;46.28;97838.38;4950999;28;20265;-71
2023/02/21 04:30:42;;;;;;;3.07;2.30;;;;;;;9.70;46.59;97838.63;4955408;28;20229;-70
2023/02/21 04:33:17;;;;;;;2.77;2.40;;;;;;;9.60;46.52;97843.81;4932956;28;20213;-69
2023/02/21 04:35:42;;;;;;;2.67;2.37;;;;;;;9.65;46.63;97852.13;4944888;28;20194;-71
2023/02/21 04:38:08;;;;;;;3.03;2.50;;;;;;;9.70;46.80;97849.09;4949420;28;20496;-70
2023/02/21 04:40:33;;;;;;;3.10;2.30;;;;;;;9.61;46.74;97850.72;4958035;28;20206;-71
2023/02/21 04:42:58;;;;;;;3.50;2.37;;;;;;;9.65;46.45;97853.88;4952180;28;20748;-70
2023/02/21 04:45:24;;;;;;;4.80;2.60;;;;;;;9.58;46.74;97843.13;4934987;28;20201;-71
2023/02/21 04:47:49;;;;;;;3.00;2.27;;;;;;;9.43;47.20;97853.09;4967521;28;20272;-69
2023/02/21 04:50:15;;;;;;;4.70;2.40;;;;;;;9.46;47.20;97849.38;4975749;28;20213;-70
2023/02/21 04:52:40;;;;;;;4.00;2.93;;;;;;;9.47;47.24;97851.03;4952149;28;20191;-71
2023/02/21 04:55:07;;;;;;;5.03;2.50;;;;;;;9.38;47.23;97845.63;4950011;28;20190;-71
2023/02/21 04:57:32;;;;;;;3.10;2.43;;;;;;;9.44;47.04;97843.47;4949714;28;20194;-71
2023/02/21 04:59:59;;;;;;;5.73;2.80;;;;;;;9.38;47.33;97839.59;4957449;28;20545;-70
2023/02/21 05:02:25;;;;;;;4.63;2.40;;;;;;;9.33;47.02;97839.94;4952859;28;20643;-71
2023/02/21 05:04:50;;;;;;;3.43;2.63;;;;;;;9.36;47.17;97831.84;4939408;28;20496;-70
2023/02/21 05:07:16;;;;;;;3.10;2.60;;;;;;;9.35;47.39;97838.03;4961371;28;20474;-70
2023/02/21 05:09:41;;;;;;;5.00;2.27;;;;;;;9.27;47.18;97834.41;4954830;28;20304;-70
2023/02/21 05:12:10;;;;;;;4.77;2.80;;;;;;;9.18;48.03;97833.41;4952463;28;20277;-72
2023/02/21 05:14:37;;;;;;;5.07;2.70;;;;;;;9.19;47.55;97829.84;4961293;28;20284;-70
2023/02/21 05:17:03;;;;;;;3.50;2.70;;;;;;;9.24;47.52;97825.03;4943343;29;20521;-70
2023/02/21 05:19:28;;;;;;;5.97;2.67;;;;;;;9.22;47.25;97829.56;4951946;28;20544;-70
2023/02/21 05:21:58;;;;;;;5.20;2.80;;;;;;;9.17;47.80;97832.56;4952926;28;20225;-70
2023/02/21 05:24:24;;;;;;;3.70;3.20;;;;;;;9.20;47.49;97828.84;4953105;28;20202;-70
2023/02/21 05:26:50;;;;;;;8.57;2.97;;;;;;;9.15;47.97;97833.66;4953830;28;20945;-71
2023/02/21 05:29:16;;;;;;;3.50;3.10;;;;;;;9.05;47.82;97829.19;4952259;28;20461;-70
2023/02/21 05:31:41;;;;;;;4.90;3.50;;;;;;;8.97;48.15;97830.78;4953495;28;20438;-70
2023/02/21 05:34:07;;;;;;;3.73;3.30;;;;;;;9.01;47.69;97825.19;4957346;28;20289;-69
2023/02/21 05:36:32;;;;;;;7.70;3.07;;;;;;;9.03;48.19;97818.03;4953658;28;20446;-69
2023/02/21 05:38:58;;;;;;;5.40;3.30;;;;;;;9.07;48.20;97829.88;4966674;28;20201;-70
2023/02/21 05:41:23;;;;;;;2.93;2.47;;;;;;;9.09;47.84;97834.16;4954677;28;20198;-69
2023/02/21 05:43:49;;;;;;;4.63;2.80;;;;;;;9.12;48.24;97829.53;4956970;28;20240;-68
2023/02/21 05:46:26;;;;;;;4.70;3.00;;;;;;;9.09;48.16;97836.78;4952113;28;20568;-70
2023/02/21 05:48:52;;;;;;;4.80;3.10;;;;;;;9.09;47.79;97836.78;4952835;28;20235;-70
2023/02/21 05:51:18;;;;;;;6.37;2.90;;;;;;;9.15;47.44;97834.47;4934847;28;20504;-69
2023/02/21 05:53:44;;;;;;;5.30;3.60;;;;;;;9.20;47.34;97842.78;4946676;28;20201;-69
2023/02/21 05:56:10;;;;;;;5.23;3.37;;;;;;;9.16;47.51;97843.97;4951775;28;20446;-70
2023/02/21 05:58:35;;;;;;;5.00;3.27;;;;;;;9.16;47.35;97841.38;4952336;28;20476;-70
2023/02/21 06:01:01;;;;;;;6.07;3.50;;;;;;;9.18;47.51;97846.50;4952528;28;20706;-71
2023/02/21 06:03:26;;;;;;;3.63;3.20;;;;;;;9.09;48.06;97836.78;4951692;28;20741;-70
2023/02/21 06:05:52;;;;;;;6.40;3.30;;;;;;;9.09;47.71;97839.38;4952805;28;20226;-71
2023/02/21 06:08:17;;;;;;;7.10;3.07;;;;;;;9.11;47.96;97834.88;4951770;28;20336;-68
2023/02/21 06:10:42;;;;;;;4.20;2.60;;;;;;;9.13;47.67;97840.81;4952631;28;20250;-70
2023/02/21 06:13:08;;;;;;;5.60;3.20;;;;;;;9.18;47.93;97842.06;4953521;28;20289;-71
2023/02/21 06:15:33;;;;;;;5.60;2.80;;;;;;;9.21;47.67;97833.13;4951927;28;20296;-69
2023/02/21 06:17:59;;;;;;;11.50;3.73;;;;;;;9.16;47.47;97827.47;4960018;28;20222;-68
2023/02/21 06:20:24;;;;;;;6.50;3.57;;;;;;;9.12;48.07;97832.13;4958728;28;20245;-72
2023/02/21 06:22:50;;;;;;;6.03;3.50;;;;;;;9.18;47.87;97830.78;4966852;28;20213;-71
2023/02/21 06:25:15;;;;;;;6.23;3.77;;;;;;;9.20;47.76;97839.31;4959583;28;20244;-70
2023/02/21 06:27:42;;;;;;;5.60;3.83;;;;;;;9.17;47.82;97827.34;4916779;29;20195;-71
2023/02/21 06:30:08;;;;;;;3.90;3.27;;;;;;;9.16;47.28;97819.63;4950799;28;20214;-71
2023/02/21 06:32:34;;;;;;;6.80;3.17;;;;;;;9.11;48.25;97819.16;4934471;29;20446;-69
2023/02/21 06:34:59;;;;;;;11.10;3.63;;;;;;;9.13;48.21;97822.50;4948383;28;20909;-70
2023/02/21 06:37:25;;;;;;;6.77;3.07;;;;;;;9.01;48.44;97814.72;4951199;28;20194;-70
2023/02/21 06:39:50;;;;;;;6.63;3.30;;;;;;;9.08;48.55;97820.25;4953316;28;20741;-69
2023/02/21 06:42:17;;;;;;;5.37;3.33;;;;;;;9.07;48.20;97819.41;4952845;28;20292;-70
2023/02/21 06:44:44;;;;;;;8.03;4.13;;;;;;;9.10;48.54;97820.13;4955747;28;20194;-71
2023/02/21 06:47:10;;;;;;;8.90;3.50;;;;;;;9.23;49.52;97831.22;4936635;28;20438;-72
2023/02/21 06:49:35;;;;;;;8.90;4.13;;;;;;;9.25;49.20;97831.13;4958002;28;20844;-73
2023/02/21 06:52:00;;;;;;;9.20;4.60;;;;;;;9.35;48.56;97832.00;4952302;28;20676;-71
2023/02/21 06:54:26;;;;;;;8.97;4.17;;;;;;;9.37;48.68;97836.13;4958411;28;20692;-71
2023/02/21 06:56:51;;;;;;;7.13;3.97;;;;;;;9.43;48.73;97833.97;4951915;28;20202;-70
2023/02/21 06:59:20;;;;;;;16.77;4.47;;;;;;;9.36;47.79;97828.41;4951279;28;20297;-69
2023/02/21 07:01:46;;;;;;;9.37;4.27;;;;;;;9.37;47.71;97840.56;4954668;28;20745;-71
2023/02/21 07:04:11;;;;;;;9.93;4.70;;;;;;;9.43;47.92;97844.44;4931621;28;20446;-71
2023/02/21 07:06:37;;;;;;;12.27;4.50;;;;;;;9.45;48.17;97835.47;4952124;28;20233;-72
2023/02/21 07:09:03;;;;;;;10.10;4.23;;;;;;;9.33;48.83;97842.56;4959591;28;20723;-70
2023/02/21 07:11:30;;;;;;;14.93;4.60;;;;;;;9.47;47.93;97843.19;4951038;28;21099;-71
2023/02/21 07:13:57;;;;;;;10.23;4.10;;;;;;;9.43;48.00;97840.00;4950888;28;20222;-70
2023/02/21 07:16:23;;;;;;;17.07;6.37;;;;;;;9.39;48.62;97843.84;4953552;28;20584;-70
2023/02/21 07:18:48;;;;;;;28.30;6.37;;;;;;;9.52;49.20;97843.66;4963024;28;20512;-70
2023/02/21 07:21:14;;;;;;;16.30;5.47;;;;;;;9.60;48.64;97833.34;4952705;28;20555;-69
2023/02/21 07:23:42;;;;;;;13.43;5.83;;;;;;;9.66;49.38;97845.09;4934353;29;20256;-70
2023/02/21 07:26:07;;;;;;;20.83;5.30;;;;;;;9.78;48.61;97836.19;4950771;28;20559;-70
2023/02/21 07:28:33;;;;;;;14.87;5.73;;;;;;;9.79;48.16;97834.41;4953877;28;20432;-71
2023/02/21 07:30:58;;;;;;;25.53;6.00;;;;;;;9.87;48.24;97837.19;4951369;28;20617;-72
2023/02/21 07:33:24;;;;;;;10.90;4.73;;;;;;;9.91;47.98;97830.72;4956761;28;20200;-70
2023/02/21 07:35:49;;;;;;;25.97;5.83;;;;;;;9.93;48.13;97838.44;4962725;28;20199;-71
2023/02/21 07:38:22;;;;;;;15.10;6.03;;;;;;;10.04;47.80;97835.72;4956965;28;20268;-71
2023/02/21 07:40:48;;;;;;;13.93;5.53;;;;;;;10.09;48.35;97837.94;4965722;28;20214;-73
2023/02/21 07:43:13;;;;;;;16.90;5.30;;;;;;;10.18;48.31;97834.53;4946008;28;20442;-73
2023/02/21 07:45:39;;;;;;;11.37;5.63;;;;;;;10.24;48.01;97835.78;4953560;28;20508;-73
2023/02/21 07:48:04;;;;;;;14.30;5.37;;;;;;;10.27;48.66;97841.56;4951342;28;20276;-73
2023/02/21 07:50:30;;;;;;;8.30;5.13;;;;;;;10.32;48.60;97840.34;4933242;28;20222;-72
2023/02/21 07:52:55;;;;;;;12.33;5.67;;;;;;;10.36;48.83;97832.09;4950491;28;20288;-74
2023/02/21 07:55:21;;;;;;;13.83;5.10;;;;;;;10.40;49.18;97830.03;4950859;28;20205;-73
2023/02/21 07:57:46;;;;;;;25.83;7.77;;;;;;;10.46;49.30;97837.34;4950583;28;20186;-73
2023/02/21 08:00:12;;;;;;;15.73;5.90;;;;;;;10.53;49.13;97841.09;4965833;28;20289;-74
2023/02/21 08:02:38;;;;;;;17.80;5.30;;;;;;;10.62;48.75;97841.22;4949145;28;20633;-73
2023/02/21 08:05:05;;;;;;;12.20;4.60;;;;;;;10.75;47.98;97836.53;4950974;28;20504;-73
2023/02/21 08:07:31;;;;;;;7.43;4.53;;;;;;;10.84;48.01;97835.72;4950996;28;20189;-74
2023/02/21 08:09:56;;;;;;;10.87;4.33;;;;;;;10.96;47.44;97832.97;4949807;28;20469;-74
2023/02/21 08:12:22;;;;;;;6.60;3.80;;;;;;;11.10;47.59;97827.28;4931983;28;20190;-73
2023/02/21 08:14:47;;;;;;;12.57;5.07;;;;;;;11.22;47.86;97828.75;4949613;28;20212;-72
2023/02/21 08:17:12;;;;;;;9.07;4.60;;;;;;;11.39;47.75;97829.00;4950615;28;20244;-73
2023/02/21 08:19:38;;;;;;;7.60;4.50;;;;;;;11.60;47.19;97835.84;4951418;28;20210;-72
2023/02/21 08:22:04;;;;;;;10.13;4.30;;;;;;;11.83;46.50;97831.91;4958794;28;20220;-73
2023/02/21 08:24:30;;;;;;;11.40;5.17;;;;;;;12.16;45.97;97826.22;4959360;28;20914;-72
2023/02/21 08:26:55;;;;;;;13.07;5.00;;;;;;;12.49;45.33;97831.00;4950821;28;20190;-72
2023/02/21 08:29:21;;;;;;;8.87;5.17;;;;;;;12.86;44.66;97830.88;4940812;28;20663;-74
2023/02/21 08:31:46;;;;;;;9.00;4.87;;;;;;;13.28;43.64;97829.38;4959996;28;20866;-73
2023/02/21 08:34:12;;;;;;;13.90;4.20;;;;;;;13.71;43.64;97829.50;4972428;28;20218;-74
2023/02/21 08:36:40;;;;;;;20.23;5.20;;;;;;;14.12;42.60;97832.31;4951068;28;20179;-73
2023/02/21 08:39:07;;;;;;;9.57;4.87;;;;;;;14.53;41.65;97839.50;4940250;29;20190;-73
2023/02/21 08:41:41;;;;;;;13.40;4.77;;;;;;;14.94;41.12;97838.72;4954288;28;20476;-73
2023/02/21 08:44:07;;;;;;;18.80;5.07;;;;;;;15.31;40.08;97824.19;4964025;28;20440;-74
2023/02/21 08:46:33;;;;;;;8.20;4.40;;;;;;;15.68;38.69;97832.53;4951245;28;20838;-74
2023/02/21 08:48:59;;;;;;;12.43;4.03;;;;;;;16.03;38.22;97832.28;4951469;28;20501;-74
2023/02/21 08:51:28;;;;;;;6.90;3.70;;;;;;;16.24;37.62;97829.06;4954906;28;20705;-74
2023/02/21 08:53:54;;;;;;;7.20;4.23;;;;;;;16.57;37.03;97831.50;4940560;29;20186;-73
2023/02/21 08:56:20;;;;;;;7.53;3.20;;;;;;;16.83;36.34;97823.19;4952021;28;20442;-72
2023/02/21 08:58:46;;;;;;;10.07;4.00;;;;;;;17.03;36.31;97826.22;4951985;28;20198;-73
2023/02/21 09:01:12;;;;;;;6.03;3.87;;;;;;;17.34;35.61;97822.66;4965900;28;20811;-74
2023/02/21 09:03:37;;;;;;;8.00;3.97;;;;;;;17.60;35.40;97815.25;4951922;28;20716;-75
2023/02/21 09:06:03;;;;;;;7.77;3.90;;;;;;;17.77;35.12;97818.53;4955772;28;20801;-73
2023/02/21 09:08:29;;;;;;;6.43;3.77;;;;;;;18.06;34.46;97814.25;4951740;28;20198;-74
2023/02/21 09:10:59;;;;;;;7.57;4.13;;;;;;;18.26;33.95;97823.28;4954085;28;20214;-74
2023/02/21 09:13:25;;;;;;;7.43;4.10;;;;;;;18.61;33.38;97824.47;4939210;28;20434;-74
2023/02/21 09:15:51;;;;;;;8.83;4.53;;;;;;;18.78;33.14;97820.53;4957799;28;20438;-74
2023/02/21 09:18:16;;;;;;;8.00;4.10;;;;;;;19.07;33.24;97817.97;4956559;28;20438;-74
2023/02/21 09:20:42;;;;;;;13.70;4.70;;;;;;;19.38;33.02;97814.09;4940537;29;20679;-75
2023/02/21 09:23:08;;;;;;;6.50;4.17;;;;;;;19.54;31.76;97802.31;4973072;28;20237;-74
2023/02/21 09:25:33;;;;;;;9.53;4.33;;;;;;;19.89;32.44;97813.00;4955397;28;20277;-74
2023/02/21 09:28:00;;;;;;;7.10;3.93;;;;;;;20.09;31.44;97811.25;4966241;28;20433;-74
2023/02/21 09:30:28;;;;;;;12.90;4.17;;;;;;;20.13;31.09;97810.84;4954803;28;20211;-75
2023/02/21 09:32:54;;;;;;;7.47;3.90;;;;;;;20.33;31.02;97814.38;4937724;29;20480;-75
2023/02/21 09:35:20;;;;;;;10.00;4.17;;;;;;;20.37;30.51;97806.81;4953870;28;20438;-74
2023/02/21 09:37:46;;;;;;;12.53;4.13;;;;;;;20.30;30.47;97816.63;4950836;28;20442;-74
2023/02/21 09:40:23;;;;;;;13.63;4.10;;;;;;;20.23;30.76;97813.94;4964493;28;20202;-73
2023/02/21 09:42:56;;;;;;;13.97;4.23;;;;;;;20.36;30.13;97800.69;4937524;29;20190;-72
2023/02/21 09:45:23;;;;;;;7.37;4.30;;;;;;;20.66;29.81;97802.19;4976271;28;21001;-73
2023/02/21 09:47:53;;;;;;;9.13;3.77;;;;;;;20.81;29.59;97800.19;4959784;28;20433;-75
2023/02/21 09:50:26;;;;;;;11.70;3.93;;;;;;;21.04;29.27;97800.81;4935494;28;20557;-73
2023/02/21 09:52:52;;;;;;;8.67;4.30;;;;;;;21.28;29.17;97808.19;4942619;28;20440;-74
2023/02/21 09:55:36;;;;;;;8.37;3.80;;;;;;;21.48;28.93;97796.66;4981175;28;20437;-73
2023/02/21 09:58:01;;;;;;;13.27;4.27;;;;;;;21.67;28.17;97804.88;4960192;28;20436;-74
2023/02/21 10:00:33;;;;;;;7.80;3.53;;;;;;;21.92;29.49;97796.97;4952534;28;20445;-73
2023/02/21 10:03:25;;;;;;;9.50;3.37;;;;;;;22.23;29.78;97790.88;4963634;28;20218;-74
2023/02/21 10:06:06;;;;;;;8.17;3.60;;;;;;;22.42;29.12;97793.69;4935936;29;20803;-74
2023/02/21 10:08:37;;;;;;;9.17;3.97;;;;;;;22.54;28.16;97796.50;4938394;28;20437;-74
2023/02/21 10:11:26;;;;;;;8.60;3.47;;;;;;;22.64;28.13;97798.69;4957296;28;20979;-72
2023/02/21 10:14:14;;;;;;;7.00;3.70;;;;;;;22.70;27.81;97795.16;4951498;28;20449;-74
2023/02/21 10:16:47;;;;;;;9.20;3.73;;;;;;;22.74;27.72;97795.56;4955216;28;20433;-74
2023/02/21 10:19:30;;;;;;;5.57;3.27;;;;;;;22.89;27.82;97787.22;4964083;28;20514;-73
2023/02/21 10:21:57;;;;;;;7.33;3.93;;;;;;;23.06;27.24;97785.63;4925899;28;20792;-74
2023/02/21 10:24:24;;;;;;;6.03;3.03;;;;;;;23.26;27.44;97784.66;4954034;28;20440;-74
2023/02/21 10:27:09;;;;;;;4.13;2.70;;;;;;;23.50;26.20;97784.84;4951576;28;20434;-73
2023/02/21 10:29:54;;;;;;;5.00;2.80;;;;;;;23.72;26.39;97779.88;4917979;28;20456;-76
2023/02/21 10:32:21;;;;;;;4.03;3.00;;;;;;;23.92;25.87;97780.44;4933508;28;20441;-73
2023/02/21 10:34:47;;;;;;;7.57;3.00;;;;;;;23.83;26.00;97773.78;4936007;29;20442;-72
2023/02/21 10:37:51;;;;;;;6.20;3.10;;;;;;;24.08;25.91;97775.56;4973494;28;20441;-71
2023/02/21 10:40:35;;;;;;;8.80;3.53;;;;;;;24.19;25.11;97780.16;4942927;28;20977;-72
2023/02/21 10:43:20;;;;;;;7.30;2.93;;;;;;;24.22;25.28;97771.66;4971645;28;20445;-74
2023/02/21 10:46:10;;;;;;;5.70;2.60;;;;;;;24.31;25.51;97780.19;4952241;28;20434;-75
2023/02/21 10:48:37;;;;;;;5.40;2.67;;;;;;;24.43;25.23;97776.75;4957532;28;20421;-72
2023/02/21 10:51:13;;;;;;;8.50;2.20;;;;;;;24.39;24.60;97776.38;4957438;28;20531;-74
2023/02/21 10:53:44;;;;;;;4.10;2.10;;;;;;;24.70;24.91;97771.84;4952513;28;20425;-73
2023/02/21 10:56:17;;;;;;;4.13;2.23;;;;;;;24.94;24.00;97766.50;4952056;28;20445;-73
2023/02/21 10:58:50;;;;;;;4.30;2.50;;;;;;;25.08;24.29;97772.44;4950528;28;20596;-73
2023/02/21 11:01:24;;;;;;;3.10;2.23;;;;;;;25.26;24.46;97758.13;4957220;28;20465;-74
2023/02/21 11:03:54;;;;;;;7.57;2.30;;;;;;;25.16;23.74;97758.72;4951959;28;20440;-72
2023/02/21 11:06:36;;;;;;;6.40;3.27;;;;;;;25.10;24.16;97751.59;4959773;28;20456;-71
2023/02/21 11:09:23;;;;;;;7.23;3.07;;;;;;;24.96;24.02;97743.78;4938204;29;20430;-73
2023/02/21 11:12:03;;;;;;;4.90;3.40;;;;;;;24.96;24.04;97748.31;4965714;28;20468;-73
2023/02/21 11:14:29;;;;;;;10.67;3.57;;;;;;;24.98;24.23;97746.22;4951593;28;20449;-75
2023/02/21 11:17:06;;;;;;;12.00;4.17;;;;;;;25.21;23.57;97741.91;4970120;28;20961;-74
2023/02/21 11:20:16;;;;;;;9.80;3.40;;;;;;;25.27;23.98;97743.66;4950880;28;20500;-76
2023/02/21 11:22:47;;;;;;;8.40;3.40;;;;;;;25.52;23.25;97732.69;4950516;28;20806;-73
2023/02/21 11:25:24;;;;;;;18.83;2.60;;;;;;;25.63;23.47;97733.72;4934500;28;20436;-72
2023/02/21 11:28:09;;;;;;;8.20;3.83;;;;;;;25.50;23.34;97742.84;4951487;28;20434;-75
2023/02/21 11:30:37;;;;;;;11.03;2.80;;;;;;;25.51;23.57;97730.25;4950578;28;20505;-75
2023/02/21 11:33:03;;;;;;;7.10;3.40;;;;;;;25.58;23.40;97718.31;4974293;28;20426;-71
2023/02/21 11:35:48;;;;;;;7.93;2.70;;;;;;;25.58;23.15;97712.94;4958697;28;20445;-73
2023/02/21 11:38:37;;;;;;;8.33;3.10;;;;;;;25.51;23.67;97714.97;4950442;28;20514;-72
2023/02/21 11:41:16;;;;;;;12.93;3.53;;;;;;;25.51;24.15;97708.78;4957040;28;20818;-74
2023/02/21 11:43:51;;;;;;;8.50;3.30;;;;;;;25.52;24.02;97708.53;4954275;28;21011;-73
2023/02/21 11:46:16;;;;;;;5.10;3.07;;;;;;;25.54;23.49;97706.44;4960723;28;20940;-73
2023/02/21 11:49:03;;;;;;;7.30;3.03;;;;;;;25.73;23.74;97704.41;4966760;28;20484;-74
2023/02/21 11:51:47;;;;;;;16.33;3.40;;;;;;;25.85;23.48;97693.63;4950733;28;20715;-74
2023/02/21 11:54:13;;;;;;;5.70;2.87;;;;;;;25.88;23.13;97692.34;4950939;28;20438;-75
2023/02/21 11:56:43;;;;;;;4.73;2.93;;;;;;;25.85;23.64;97685.56;4948530;28;20434;-73
2023/02/21 11:59:33;;;;;;;6.67;3.60;;;;;;;25.85;23.17;97680.19;4950612;28;20182;-74
2023/02/21 12:02:23;;;;;;;4.77;3.03;;;;;;;25.81;23.53;97679.06;4948661;28;20430;-72
2023/02/21 12:04:58;;;;;;;8.33;2.77;;;;;;;25.85;23.82;97674.81;4971502;28;20477;-73
2023/02/21 12:07:45;;;;;;;4.57;2.67;;;;;;;25.95;23.74;97673.41;4954144;28;20884;-76
2023/02/21 12:10:40;;;;;;;4.40;2.47;;;;;;;25.70;23.22;97666.50;4950740;28;20592;-74
2023/02/21 12:13:24;;;;;;;4.13;2.60;;;;;;;25.43;23.45;97657.13;4951624;28;20437;-72
2023/02/21 12:16:09;;;;;;;8.70;2.30;;;;;;;25.55;23.95;97653.59;4933206;29;20434;-71
2023/02/21 12:19:00;;;;;;;8.57;2.40;;;;;;;25.84;23.30;97650.91;4958364;28;22009;-71
2023/02/21 12:21:56;;;;;;;3.67;2.30;;;;;;;25.74;23.37;97644.31;4952262;28;20522;-74
2023/02/21 12:24:30;;;;;;;6.97;2.50;;;;;;;25.41;23.61;97631.59;4956584;28;20463;-72
2023/02/21 12:27:49;;;;;;;4.70;2.50;;;;;;;25.35;23.37;97640.56;4950629;28;20457;-72
2023/02/21 12:30:29;;;;;;;8.47;1.97;;;;;;;25.67;23.43;97635.56;4873439;28;20505;-72
2023/02/21 12:33:10;;;;;;;3.60;2.10;;;;;;;25.77;23.37;97624.22;4947037;28;20433;-73
2023/02/21 12:35:38;;;;;;;3.63;2.10;;;;;;;25.61;23.65;97626.63;4952620;28;20438;-73
2023/02/21 12:38:03;;;;;;;5.33;2.07;;;;;;;25.65;23.41;97631.50;4952585;28;20521;-74
2023/02/21 12:40:41;;;;;;;3.40;2.00;;;;;;;25.26;23.31;97608.75;4949595;28;20541;-73
2023/02/21 12:43:25;;;;;;;4.53;2.23;;;;;;;25.20;23.14;97608.88;4955226;28;20189;-73
2023/02/21 12:46:08;;;;;;;2.03;1.80;;;;;;;25.48;24.09;97604.63;4952032;28;20430;-74
2023/02/21 12:48:37;;;;;;;8.03;2.00;;;;;;;25.38;23.25;97607.91;4959840;28;20437;-73
2023/02/21 12:51:07;;;;;;;3.40;1.90;;;;;;;25.44;23.48;97601.63;4961088;28;20504;-74
2023/02/21 12:53:39;;;;;;;6.43;2.13;;;;;;;25.36;23.37;97592.06;4948445;28;20449;-74
2023/02/21 12:56:10;;;;;;;3.63;1.83;;;;;;;25.39;23.46;97580.03;4955177;28;20437;-72
2023/02/21 12:58:48;;;;;;;4.40;1.67;;;;;;;25.39;22.78;97588.06;4958609;28;20429;-73
2023/02/21 13:01:17;;;;;;;9.40;2.63;;;;;;;25.37;23.17;97584.81;4939095;28;20967;-72
2023/02/21 13:03:50;;;;;;;7.63;2.20;;;;;;;25.30;22.44;97577.72;4943670;28;20446;-73
2023/02/21 13:06:27;;;;;;;3.30;1.97;;;;;;;25.48;22.94;97561.72;4946580;28;20814;-74
2023/02/21 13:09:05;;;;;;;3.70;1.70;;;;;;;25.34;23.28;97558.44;4948328;28;20447;-74
2023/02/21 13:11:46;;;;;;;5.13;1.90;;;;;;;25.31;23.12;97557.06;4955973;28;20476;-73
2023/02/21 13:14:25;;;;;;;4.83;1.80;;;;;;;25.13;23.45;97548.19;4949825;28;20458;-74
2023/02/21 13:16:52;;;;;;;4.90;1.70;;;;;;;25.41;23.06;97553.81;4950930;28;20460;-73
2023/02/21 13:19:17;;;;;;;4.20;1.50;;;;;;;25.42;22.51;97544.72;4935396;28;20430;-74
2023/02/21 13:21:52;;;;;;;2.47;1.47;;;;;;;25.26;22.57;97538.22;4964624;28;20439;-74
2023/02/21 13:24:50;;;;;;;4.13;1.70;;;;;;;25.26;22.79;97536.34;4950146;28;20197;-74
2023/02/21 13:27:27;;;;;;;2.30;1.30;;;;;;;25.19;23.01;97535.69;4953687;28;20807;-74
2023/02/21 13:30:01;;;;;;;2.07;1.60;;;;;;;25.23;23.49;97539.50;4970355;28;20466;-73
2023/02/21 13:32:26;;;;;;;2.07;1.30;;;;;;;25.12;22.91;97524.25;4950484;28;20953;-73
2023/02/21 13:34:57;;;;;;;4.20;1.83;;;;;;;25.09;23.24;97522.88;4960592;28;20437;-75
2023/02/21 13:37:25;;;;;;;1.63;1.53;;;;;;;24.98;22.79;97521.84;4953155;28;20635;-75
2023/02/21 13:39:53;;;;;;;3.63;1.40;;;;;;;25.08;23.40;97512.38;4955769;28;20545;-75
2023/02/21 13:42:21;;;;;;;2.17;1.30;;;;;;;25.05;22.94;97510.19;4939614;28;20505;-74
2023/02/21 13:45:08;;;;;;;2.70;1.30;;;;;;;25.10;23.08;97496.88;4953724;28;20448;-76
2023/02/21 13:47:59;;;;;;;4.27;1.10;;;;;;;24.86;23.05;97496.97;4972806;28;20435;-77
2023/02/21 13:50:37;;;;;;;3.80;1.27;;;;;;;24.87;23.01;97498.59;4954888;28;20478;-73
2023/02/21 13:53:08;;;;;;;3.10;1.40;;;;;;;25.00;23.23;97490.28;4955488;28;20433;-72
2023/02/21 13:55:35;;;;;;;3.83;1.50;;;;;;;25.09;23.51;97489.88;4954479;28;20441;-73
2023/02/21 13:58:00;;;;;;;1.87;1.23;;;;;;;25.32;22.45;97478.25;4952515;28;20438;-73
2023/02/21 14:00:26;;;;;;;1.40;1.13;;;;;;;25.37;23.08;97485.56;4951955;28;20980;-72
2023/02/21 14:03:05;;;;;;;1.73;1.00;;;;;;;25.23;23.05;97477.81;4954852;28;20186;-73
2023/02/21 14:05:45;;;;;;;3.10;1.10;;;;;;;25.47;22.76;97471.56;4952302;28;20198;-73
2023/02/21 14:08:13;;;;;;;2.40;1.03;;;;;;;25.56;22.50;97467.41;4953836;28;20975;-72
2023/02/21 14:10:48;;;;;;;3.30;1.20;;;;;;;25.44;22.17;97475.53;4954317;28;20816;-73